Terminal Aerodrome Forecast
Issued by NWS

Home | Current Version | Previous Version | Text Only | Print | Product List | Glossary On
Versions: 1 2 3 4 5 6 7 8 9 10 11 12 13
000
FTUS42 TJSJ 011700
TAFJPS
TAF
TJPS 011736Z 0118/0218 13012KT P6SM FEW030
     FM012330 05005KT P6SM FEW030
     FM021400 14010KT P6SM FEW030
      AMD NOT SKED TIL 020300=

USA.gov is the U.S. government's official web portal to all federal, state and local government web resources and services.